sensor_id;sensor_type;location;lat;lon;timestamp;P1;durP1;ratioP1;P2;durP2;ratioP2
38312;SDS011;24114;52.260;6.714;2023-12-29T00:00:08;5.40;;;1.08;;
38312;SDS011;24114;52.260;6.714;2023-12-29T00:02:37;7.18;;;1.13;;
38312;SDS011;24114;52.260;6.714;2023-12-29T00:05:05;7.18;;;1.40;;
38312;SDS011;24114;52.260;6.714;2023-12-29T00:07:33;5.53;;;0.98;;
38312;SDS011;24114;52.260;6.714;2023-12-29T00:10:02;7.03;;;1.77;;
38312;SDS011;24114;52.260;6.714;2023-12-29T00:12:31;5.32;;;1.05;;
38312;SDS011;24114;52.260;6.714;2023-12-29T00:14:59;6.45;;;1.45;;
38312;SDS011;24114;52.260;6.714;2023-12-29T00:17:26;6.88;;;1.45;;
38312;SDS011;24114;52.260;6.714;2023-12-29T00:19:54;6.28;;;1.10;;
38312;SDS011;24114;52.260;6.714;2023-12-29T00:22:22;6.00;;;0.93;;
38312;SDS011;24114;52.260;6.714;2023-12-29T00:24:51;5.00;;;0.80;;
38312;SDS011;24114;52.260;6.714;2023-12-29T00:27:20;6.72;;;1.08;;
38312;SDS011;24114;52.260;6.714;2023-12-29T00:29:48;5.35;;;1.30;;
38312;SDS011;24114;52.260;6.714;2023-12-29T00:32:16;7.70;;;1.27;;
38312;SDS011;24114;52.260;6.714;2023-12-29T00:34:44;6.72;;;1.10;;
38312;SDS011;24114;52.260;6.714;2023-12-29T00:37:11;7.68;;;0.93;;
38312;SDS011;24114;52.260;6.714;2023-12-29T00:39:39;7.47;;;1.20;;
38312;SDS011;24114;52.260;6.714;2023-12-29T00:42:07;7.35;;;0.82;;
38312;SDS011;24114;52.260;6.714;2023-12-29T00:44:37;5.28;;;1.10;;
38312;SDS011;24114;52.260;6.714;2023-12-29T00:47:05;4.88;;;0.77;;
38312;SDS011;24114;52.260;6.714;2023-12-29T00:49:33;5.65;;;0.80;;
38312;SDS011;24114;52.260;6.714;2023-12-29T00:52:01;6.85;;;0.90;;
38312;SDS011;24114;52.260;6.714;2023-12-29T00:54:29;6.28;;;0.73;;
38312;SDS011;24114;52.260;6.714;2023-12-29T00:56:57;5.97;;;0.63;;
38312;SDS011;24114;52.260;6.714;2023-12-29T00:59:25;4.90;;;1.00;;
38312;SDS011;24114;52.260;6.714;2023-12-29T01:01:54;4.80;;;0.93;;
38312;SDS011;24114;52.260;6.714;2023-12-29T01:04:22;5.88;;;0.90;;
38312;SDS011;24114;52.260;6.714;2023-12-29T01:06:50;4.87;;;0.80;;
38312;SDS011;24114;52.260;6.714;2023-12-29T01:09:17;4.30;;;0.77;;
38312;SDS011;24114;52.260;6.714;2023-12-29T01:11:45;6.20;;;1.00;;
38312;SDS011;24114;52.260;6.714;2023-12-29T01:14:13;6.50;;;0.87;;
38312;SDS011;24114;52.260;6.714;2023-12-29T01:16:41;5.28;;;0.75;;
38312;SDS011;24114;52.260;6.714;2023-12-29T01:19:10;6.00;;;1.48;;
38312;SDS011;24114;52.260;6.714;2023-12-29T01:21:38;5.43;;;0.90;;
38312;SDS011;24114;52.260;6.714;2023-12-29T01:24:05;6.25;;;1.30;;
38312;SDS011;24114;52.260;6.714;2023-12-29T01:26:36;7.65;;;1.00;;
38312;SDS011;24114;52.260;6.714;2023-12-29T01:29:05;6.60;;;1.23;;
38312;SDS011;24114;52.260;6.714;2023-12-29T01:31:33;4.43;;;0.98;;
38312;SDS011;24114;52.260;6.714;2023-12-29T01:34:01;6.55;;;1.10;;
38312;SDS011;24114;52.260;6.714;2023-12-29T01:36:30;5.68;;;1.30;;
38312;SDS011;24114;52.260;6.714;2023-12-29T01:38:59;8.65;;;1.15;;
38312;SDS011;24114;52.260;6.714;2023-12-29T01:41:29;4.72;;;1.00;;
38312;SDS011;24114;52.260;6.714;2023-12-29T01:44:17;5.32;;;0.93;;
38312;SDS011;24114;52.260;6.714;2023-12-29T01:46:46;4.40;;;1.05;;
38312;SDS011;24114;52.260;6.714;2023-12-29T01:49:16;5.63;;;1.10;;
38312;SDS011;24114;52.260;6.714;2023-12-29T01:51:46;5.07;;;0.60;;
38312;SDS011;24114;52.260;6.714;2023-12-29T01:54:17;6.88;;;0.93;;
38312;SDS011;24114;52.260;6.714;2023-12-29T01:56:46;4.38;;;0.80;;
38312;SDS011;24114;52.260;6.714;2023-12-29T01:59:14;4.95;;;0.98;;
38312;SDS011;24114;52.260;6.714;2023-12-29T02:01:51;5.70;;;0.80;;
38312;SDS011;24114;52.260;6.714;2023-12-29T02:04:21;7.07;;;0.88;;
38312;SDS011;24114;52.260;6.714;2023-12-29T02:06:53;4.82;;;0.85;;
38312;SDS011;24114;52.260;6.714;2023-12-29T02:09:21;5.20;;;0.83;;
38312;SDS011;24114;52.260;6.714;2023-12-29T02:11:49;7.30;;;0.98;;
38312;SDS011;24114;52.260;6.714;2023-12-29T02:14:17;6.40;;;0.85;;
38312;SDS011;24114;52.260;6.714;2023-12-29T02:16:46;4.75;;;1.10;;
38312;SDS011;24114;52.260;6.714;2023-12-29T02:19:24;5.15;;;1.08;;
38312;SDS011;24114;52.260;6.714;2023-12-29T02:21:57;4.00;;;0.82;;
38312;SDS011;24114;52.260;6.714;2023-12-29T02:24:25;4.70;;;0.60;;
38312;SDS011;24114;52.260;6.714;2023-12-29T02:26:56;5.30;;;0.80;;
38312;SDS011;24114;52.260;6.714;2023-12-29T02:29:26;4.45;;;0.77;;
38312;SDS011;24114;52.260;6.714;2023-12-29T02:31:55;4.13;;;0.70;;
38312;SDS011;24114;52.260;6.714;2023-12-29T02:34:26;3.75;;;0.68;;
38312;SDS011;24114;52.260;6.714;2023-12-29T02:36:55;4.65;;;0.60;;
38312;SDS011;24114;52.260;6.714;2023-12-29T02:39:23;2.80;;;0.50;;
38312;SDS011;24114;52.260;6.714;2023-12-29T02:41:51;4.93;;;0.50;;
38312;SDS011;24114;52.260;6.714;2023-12-29T02:44:20;4.07;;;0.75;;
38312;SDS011;24114;52.260;6.714;2023-12-29T02:46:48;5.25;;;0.63;;
38312;SDS011;24114;52.260;6.714;2023-12-29T02:49:15;4.47;;;0.93;;
38312;SDS011;24114;52.260;6.714;2023-12-29T02:51:43;3.35;;;0.52;;
38312;SDS011;24114;52.260;6.714;2023-12-29T02:54:12;4.22;;;0.70;;
38312;SDS011;24114;52.260;6.714;2023-12-29T02:56:40;6.15;;;0.82;;
38312;SDS011;24114;52.260;6.714;2023-12-29T02:59:07;5.85;;;0.95;;
38312;SDS011;24114;52.260;6.714;2023-12-29T03:01:36;2.40;;;0.50;;
38312;SDS011;24114;52.260;6.714;2023-12-29T03:04:04;3.60;;;0.52;;
38312;SDS011;24114;52.260;6.714;2023-12-29T03:06:32;6.25;;;0.90;;
38312;SDS011;24114;52.260;6.714;2023-12-29T03:09:00;4.00;;;0.68;;
38312;SDS011;24114;52.260;6.714;2023-12-29T03:11:28;3.55;;;0.95;;
38312;SDS011;24114;52.260;6.714;2023-12-29T03:13:55;4.18;;;0.90;;
38312;SDS011;24114;52.260;6.714;2023-12-29T03:16:23;3.92;;;0.60;;
38312;SDS011;24114;52.260;6.714;2023-12-29T03:18:52;4.45;;;0.90;;
38312;SDS011;24114;52.260;6.714;2023-12-29T03:21:20;5.28;;;1.10;;
38312;SDS011;24114;52.260;6.714;2023-12-29T03:23:48;5.15;;;1.10;;
38312;SDS011;24114;52.260;6.714;2023-12-29T03:26:16;5.75;;;0.95;;
38312;SDS011;24114;52.260;6.714;2023-12-29T03:28:44;4.43;;;1.00;;
38312;SDS011;24114;52.260;6.714;2023-12-29T03:31:12;4.88;;;0.60;;
38312;SDS011;24114;52.260;6.714;2023-12-29T03:33:39;3.95;;;0.98;;
38312;SDS011;24114;52.260;6.714;2023-12-29T03:36:09;5.30;;;0.90;;
38312;SDS011;24114;52.260;6.714;2023-12-29T03:38:37;5.70;;;1.10;;
38312;SDS011;24114;52.260;6.714;2023-12-29T03:41:05;6.97;;;1.40;;
38312;SDS011;24114;52.260;6.714;2023-12-29T03:43:33;3.78;;;1.15;;
38312;SDS011;24114;52.260;6.714;2023-12-29T03:46:00;4.90;;;1.15;;
38312;SDS011;24114;52.260;6.714;2023-12-29T03:48:28;4.77;;;1.20;;
38312;SDS011;24114;52.260;6.714;2023-12-29T03:50:56;5.40;;;0.93;;
38312;SDS011;24114;52.260;6.714;2023-12-29T03:53:25;5.57;;;0.98;;
38312;SDS011;24114;52.260;6.714;2023-12-29T03:55:53;6.28;;;1.25;;
38312;SDS011;24114;52.260;6.714;2023-12-29T03:58:21;6.45;;;1.40;;
38312;SDS011;24114;52.260;6.714;2023-12-29T04:00:49;8.65;;;1.77;;
38312;SDS011;24114;52.260;6.714;2023-12-29T04:03:16;5.43;;;1.65;;
38312;SDS011;24114;52.260;6.714;2023-12-29T04:05:44;6.70;;;1.55;;
38312;SDS011;24114;52.260;6.714;2023-12-29T04:08:12;6.40;;;1.67;;
38312;SDS011;24114;52.260;6.714;2023-12-29T04:10:42;6.45;;;1.10;;
38312;SDS011;24114;52.260;6.714;2023-12-29T04:13:09;6.35;;;1.38;;
38312;SDS011;24114;52.260;6.714;2023-12-29T04:15:38;5.45;;;1.33;;
38312;SDS011;24114;52.260;6.714;2023-12-29T04:18:06;7.07;;;1.37;;
38312;SDS011;24114;52.260;6.714;2023-12-29T04:20:34;8.02;;;1.30;;
38312;SDS011;24114;52.260;6.714;2023-12-29T04:23:02;8.18;;;1.40;;
38312;SDS011;24114;52.260;6.714;2023-12-29T04:25:29;6.80;;;1.52;;
38312;SDS011;24114;52.260;6.714;2023-12-29T04:27:59;5.70;;;1.10;;
38312;SDS011;24114;52.260;6.714;2023-12-29T04:30:27;9.18;;;1.88;;
38312;SDS011;24114;52.260;6.714;2023-12-29T04:32:55;8.90;;;1.70;;
38312;SDS011;24114;52.260;6.714;2023-12-29T04:35:23;8.32;;;1.50;;
38312;SDS011;24114;52.260;6.714;2023-12-29T04:37:51;8.95;;;1.50;;
38312;SDS011;24114;52.260;6.714;2023-12-29T04:40:18;6.60;;;1.30;;
38312;SDS011;24114;52.260;6.714;2023-12-29T04:42:46;6.45;;;1.40;;
38312;SDS011;24114;52.260;6.714;2023-12-29T04:45:15;8.50;;;1.40;;
38312;SDS011;24114;52.260;6.714;2023-12-29T04:47:43;8.93;;;1.60;;
38312;SDS011;24114;52.260;6.714;2023-12-29T04:50:11;7.30;;;1.42;;
38312;SDS011;24114;52.260;6.714;2023-12-29T04:52:39;7.10;;;1.67;;
38312;SDS011;24114;52.260;6.714;2023-12-29T04:55:07;7.03;;;1.47;;
38312;SDS011;24114;52.260;6.714;2023-12-29T04:57:35;5.53;;;1.23;;
38312;SDS011;24114;52.260;6.714;2023-12-29T05:00:03;9.30;;;1.92;;
38312;SDS011;24114;52.260;6.714;2023-12-29T05:02:33;9.50;;;1.73;;
38312;SDS011;24114;52.260;6.714;2023-12-29T05:05:01;9.57;;;1.73;;
38312;SDS011;24114;52.260;6.714;2023-12-29T05:07:29;8.48;;;1.60;;
38312;SDS011;24114;52.260;6.714;2023-12-29T05:09:57;11.13;;;1.20;;
38312;SDS011;24114;52.260;6.714;2023-12-29T05:12:25;7.97;;;1.38;;
38312;SDS011;24114;52.260;6.714;2023-12-29T05:14:53;5.90;;;1.10;;
38312;SDS011;24114;52.260;6.714;2023-12-29T05:17:21;5.28;;;1.00;;
38312;SDS011;24114;52.260;6.714;2023-12-29T05:19:50;7.10;;;1.00;;
38312;SDS011;24114;52.260;6.714;2023-12-29T05:22:18;7.73;;;1.23;;
38312;SDS011;24114;52.260;6.714;2023-12-29T05:24:45;7.60;;;1.20;;
38312;SDS011;24114;52.260;6.714;2023-12-29T05:27:13;7.72;;;1.73;;
38312;SDS011;24114;52.260;6.714;2023-12-29T05:29:41;8.48;;;1.75;;
38312;SDS011;24114;52.260;6.714;2023-12-29T05:32:09;8.25;;;1.88;;
38312;SDS011;24114;52.260;6.714;2023-12-29T05:34:37;9.00;;;2.13;;
38312;SDS011;24114;52.260;6.714;2023-12-29T05:37:06;7.27;;;2.00;;
38312;SDS011;24114;52.260;6.714;2023-12-29T05:39:34;11.43;;;2.17;;
38312;SDS011;24114;52.260;6.714;2023-12-29T05:42:02;8.18;;;2.40;;
38312;SDS011;24114;52.260;6.714;2023-12-29T05:44:30;7.90;;;1.65;;
38312;SDS011;24114;52.260;6.714;2023-12-29T05:46:58;9.80;;;2.20;;
38312;SDS011;24114;52.260;6.714;2023-12-29T05:49:26;11.55;;;1.90;;
38312;SDS011;24114;52.260;6.714;2023-12-29T05:51:54;12.93;;;2.25;;
38312;SDS011;24114;52.260;6.714;2023-12-29T05:54:24;11.15;;;1.95;;
38312;SDS011;24114;52.260;6.714;2023-12-29T05:56:52;8.57;;;1.70;;
38312;SDS011;24114;52.260;6.714;2023-12-29T05:59:20;9.70;;;1.55;;
38312;SDS011;24114;52.260;6.714;2023-12-29T06:01:48;12.43;;;2.27;;
38312;SDS011;24114;52.260;6.714;2023-12-29T06:04:16;10.32;;;1.70;;
38312;SDS011;24114;52.260;6.714;2023-12-29T06:06:44;13.13;;;2.15;;
38312;SDS011;24114;52.260;6.714;2023-12-29T06:09:12;11.57;;;2.17;;
38312;SDS011;24114;52.260;6.714;2023-12-29T06:11:41;9.30;;;1.90;;
38312;SDS011;24114;52.260;6.714;2023-12-29T06:14:09;8.63;;;1.92;;
38312;SDS011;24114;52.260;6.714;2023-12-29T06:16:37;9.63;;;1.80;;
38312;SDS011;24114;52.260;6.714;2023-12-29T06:19:05;10.93;;;1.85;;
38312;SDS011;24114;52.260;6.714;2023-12-29T06:21:33;8.97;;;1.87;;
38312;SDS011;24114;52.260;6.714;2023-12-29T06:24:01;9.88;;;2.10;;
38312;SDS011;24114;52.260;6.714;2023-12-29T06:26:29;11.43;;;1.65;;
38312;SDS011;24114;52.260;6.714;2023-12-29T06:28:58;8.75;;;1.95;;
38312;SDS011;24114;52.260;6.714;2023-12-29T06:31:26;10.43;;;1.90;;
38312;SDS011;24114;52.260;6.714;2023-12-29T06:33:54;10.10;;;2.10;;
38312;SDS011;24114;52.260;6.714;2023-12-29T06:36:22;8.32;;;1.77;;
38312;SDS011;24114;52.260;6.714;2023-12-29T06:38:50;10.82;;;1.52;;
38312;SDS011;24114;52.260;6.714;2023-12-29T06:41:19;9.23;;;1.65;;
38312;SDS011;24114;52.260;6.714;2023-12-29T06:43:47;12.10;;;2.13;;
38312;SDS011;24114;52.260;6.714;2023-12-29T06:46:16;9.55;;;1.85;;
38312;SDS011;24114;52.260;6.714;2023-12-29T06:48:44;9.50;;;1.63;;
38312;SDS011;24114;52.260;6.714;2023-12-29T06:51:15;12.38;;;2.17;;
38312;SDS011;24114;52.260;6.714;2023-12-29T06:53:43;9.83;;;1.70;;
38312;SDS011;24114;52.260;6.714;2023-12-29T06:56:13;9.15;;;1.45;;
38312;SDS011;24114;52.260;6.714;2023-12-29T06:58:41;12.30;;;1.80;;
38312;SDS011;24114;52.260;6.714;2023-12-29T07:01:09;8.30;;;1.20;;
38312;SDS011;24114;52.260;6.714;2023-12-29T07:03:38;8.98;;;1.75;;
38312;SDS011;24114;52.260;6.714;2023-12-29T07:06:07;8.63;;;1.35;;
38312;SDS011;24114;52.260;6.714;2023-12-29T07:08:35;7.93;;;1.63;;
38312;SDS011;24114;52.260;6.714;2023-12-29T07:11:03;8.95;;;1.77;;
38312;SDS011;24114;52.260;6.714;2023-12-29T07:13:31;8.47;;;1.47;;
38312;SDS011;24114;52.260;6.714;2023-12-29T07:15:59;8.02;;;1.27;;
38312;SDS011;24114;52.260;6.714;2023-12-29T07:18:27;9.35;;;1.42;;
38312;SDS011;24114;52.260;6.714;2023-12-29T07:20:55;8.55;;;1.80;;
38312;SDS011;24114;52.260;6.714;2023-12-29T07:23:23;9.63;;;1.50;;
38312;SDS011;24114;52.260;6.714;2023-12-29T07:25:51;7.07;;;1.53;;
38312;SDS011;24114;52.260;6.714;2023-12-29T07:28:19;7.88;;;1.52;;
38312;SDS011;24114;52.260;6.714;2023-12-29T07:30:47;6.88;;;1.13;;
38312;SDS011;24114;52.260;6.714;2023-12-29T07:33:15;10.90;;;1.45;;
38312;SDS011;24114;52.260;6.714;2023-12-29T07:35:43;9.73;;;1.90;;
38312;SDS011;24114;52.260;6.714;2023-12-29T07:38:13;9.45;;;1.27;;
38312;SDS011;24114;52.260;6.714;2023-12-29T07:40:41;8.13;;;1.50;;
38312;SDS011;24114;52.260;6.714;2023-12-29T07:43:08;7.70;;;1.67;;
38312;SDS011;24114;52.260;6.714;2023-12-29T07:45:37;6.43;;;1.00;;
38312;SDS011;24114;52.260;6.714;2023-12-29T07:48:05;6.85;;;1.10;;
38312;SDS011;24114;52.260;6.714;2023-12-29T07:50:37;8.45;;;1.30;;
38312;SDS011;24114;52.260;6.714;2023-12-29T07:53:05;7.78;;;1.45;;
38312;SDS011;24114;52.260;6.714;2023-12-29T07:55:38;7.17;;;1.23;;
38312;SDS011;24114;52.260;6.714;2023-12-29T07:58:07;7.27;;;1.00;;
38312;SDS011;24114;52.260;6.714;2023-12-29T08:00:36;7.13;;;0.73;;
38312;SDS011;24114;52.260;6.714;2023-12-29T08:03:05;5.75;;;1.08;;
38312;SDS011;24114;52.260;6.714;2023-12-29T08:05:33;5.70;;;0.55;;
38312;SDS011;24114;52.260;6.714;2023-12-29T08:08:01;3.88;;;0.73;;
38312;SDS011;24114;52.260;6.714;2023-12-29T08:10:30;4.60;;;0.60;;
38312;SDS011;24114;52.260;6.714;2023-12-29T08:13:00;4.50;;;0.40;;
38312;SDS011;24114;52.260;6.714;2023-12-29T08:15:28;6.50;;;0.70;;
38312;SDS011;24114;52.260;6.714;2023-12-29T08:17:56;7.10;;;0.70;;
38312;SDS011;24114;52.260;6.714;2023-12-29T08:20:24;5.77;;;0.90;;
38312;SDS011;24114;52.260;6.714;2023-12-29T08:22:52;4.45;;;0.65;;
38312;SDS011;24114;52.260;6.714;2023-12-29T08:25:20;3.60;;;0.75;;
38312;SDS011;24114;52.260;6.714;2023-12-29T08:27:48;3.28;;;0.60;;
38312;SDS011;24114;52.260;6.714;2023-12-29T08:30:17;5.07;;;0.85;;
38312;SDS011;24114;52.260;6.714;2023-12-29T08:32:45;3.72;;;0.88;;
38312;SDS011;24114;52.260;6.714;2023-12-29T08:35:12;3.63;;;0.87;;
38312;SDS011;24114;52.260;6.714;2023-12-29T08:39:01;4.18;;;0.85;;
38312;SDS011;24114;52.260;6.714;2023-12-29T08:41:29;3.53;;;0.80;;
38312;SDS011;24114;52.260;6.714;2023-12-29T08:43:56;4.50;;;0.77;;
38312;SDS011;24114;52.260;6.714;2023-12-29T08:46:24;3.90;;;1.00;;
38312;SDS011;24114;52.260;6.714;2023-12-29T08:48:52;4.32;;;0.90;;
38312;SDS011;24114;52.260;6.714;2023-12-29T08:51:20;5.25;;;1.20;;
38312;SDS011;24114;52.260;6.714;2023-12-29T08:53:48;5.90;;;1.27;;
38312;SDS011;24114;52.260;6.714;2023-12-29T08:56:17;3.63;;;0.90;;
38312;SDS011;24114;52.260;6.714;2023-12-29T08:58:45;5.18;;;1.23;;
38312;SDS011;24114;52.260;6.714;2023-12-29T09:01:13;8.40;;;2.15;;
38312;SDS011;24114;52.260;6.714;2023-12-29T09:03:41;5.45;;;1.20;;
38312;SDS011;24114;52.260;6.714;2023-12-29T09:06:09;5.53;;;1.00;;
38312;SDS011;24114;52.260;6.714;2023-12-29T09:08:36;5.47;;;0.98;;
38312;SDS011;24114;52.260;6.714;2023-12-29T09:11:04;3.63;;;0.80;;
38312;SDS011;24114;52.260;6.714;2023-12-29T09:13:33;4.63;;;0.82;;
38312;SDS011;24114;52.260;6.714;2023-12-29T09:16:01;4.13;;;0.73;;
38312;SDS011;24114;52.260;6.714;2023-12-29T09:18:30;2.25;;;0.82;;
38312;SDS011;24114;52.260;6.714;2023-12-29T09:21:00;4.53;;;1.15;;
38312;SDS011;24114;52.260;6.714;2023-12-29T09:23:28;3.55;;;0.95;;
38312;SDS011;24114;52.260;6.714;2023-12-29T09:25:56;4.57;;;1.42;;
38312;SDS011;24114;52.260;6.714;2023-12-29T09:28:24;5.35;;;1.40;;
38312;SDS011;24114;52.260;6.714;2023-12-29T09:30:53;5.30;;;1.00;;
38312;SDS011;24114;52.260;6.714;2023-12-29T09:33:21;4.60;;;0.93;;
38312;SDS011;24114;52.260;6.714;2023-12-29T09:35:51;3.35;;;0.88;;
38312;SDS011;24114;52.260;6.714;2023-12-29T09:38:18;4.90;;;1.38;;
38312;SDS011;24114;52.260;6.714;2023-12-29T09:41:45;5.27;;;1.00;;
38312;SDS011;24114;52.260;6.714;2023-12-29T09:44:14;7.70;;;1.30;;
38312;SDS011;24114;52.260;6.714;2023-12-29T09:46:42;6.75;;;1.35;;
38312;SDS011;24114;52.260;6.714;2023-12-29T09:49:10;6.53;;;1.17;;
38312;SDS011;24114;52.260;6.714;2023-12-29T09:51:39;3.33;;;1.00;;
38312;SDS011;24114;52.260;6.714;2023-12-29T09:54:08;3.97;;;0.80;;
38312;SDS011;24114;52.260;6.714;2023-12-29T09:56:39;4.30;;;1.35;;
38312;SDS011;24114;52.260;6.714;2023-12-29T09:59:09;4.32;;;0.95;;
38312;SDS011;24114;52.260;6.714;2023-12-29T10:01:37;5.95;;;0.88;;
38312;SDS011;24114;52.260;6.714;2023-12-29T10:04:06;6.03;;;1.10;;
38312;SDS011;24114;52.260;6.714;2023-12-29T10:06:35;4.10;;;0.85;;
38312;SDS011;24114;52.260;6.714;2023-12-29T10:09:03;3.40;;;0.60;;
38312;SDS011;24114;52.260;6.714;2023-12-29T10:11:33;3.33;;;0.65;;
38312;SDS011;24114;52.260;6.714;2023-12-29T10:14:03;5.20;;;0.68;;
38312;SDS011;24114;52.260;6.714;2023-12-29T10:16:41;4.25;;;0.65;;
38312;SDS011;24114;52.260;6.714;2023-12-29T10:19:10;4.85;;;0.55;;
38312;SDS011;24114;52.260;6.714;2023-12-29T10:23:45;3.90;;;0.60;;
38312;SDS011;24114;52.260;6.714;2023-12-29T10:26:17;3.88;;;0.60;;
38312;SDS011;24114;52.260;6.714;2023-12-29T10:28:46;3.22;;;1.00;;
38312;SDS011;24114;52.260;6.714;2023-12-29T10:31:15;4.07;;;1.08;;
38312;SDS011;24114;52.260;6.714;2023-12-29T10:33:43;4.07;;;0.57;;
38312;SDS011;24114;52.260;6.714;2023-12-29T10:36:17;3.67;;;0.90;;
38312;SDS011;24114;52.260;6.714;2023-12-29T10:38:46;2.85;;;1.00;;
38312;SDS011;24114;52.260;6.714;2023-12-29T10:41:16;4.05;;;0.82;;
38312;SDS011;24114;52.260;6.714;2023-12-29T10:45:26;3.90;;;0.70;;
38312;SDS011;24114;52.260;6.714;2023-12-29T10:47:54;4.50;;;1.13;;
38312;SDS011;24114;52.260;6.714;2023-12-29T10:50:22;3.95;;;0.98;;
38312;SDS011;24114;52.260;6.714;2023-12-29T10:52:49;4.10;;;0.90;;
38312;SDS011;24114;52.260;6.714;2023-12-29T10:55:17;3.97;;;0.57;;
38312;SDS011;24114;52.260;6.714;2023-12-29T10:57:45;2.85;;;0.80;;
38312;SDS011;24114;52.260;6.714;2023-12-29T11:00:14;2.97;;;0.65;;
38312;SDS011;24114;52.260;6.714;2023-12-29T11:02:43;4.20;;;1.10;;
38312;SDS011;24114;52.260;6.714;2023-12-29T11:05:24;1.63;;;0.50;;
38312;SDS011;24114;52.260;6.714;2023-12-29T11:07:53;3.33;;;0.63;;
38312;SDS011;24114;52.260;6.714;2023-12-29T11:10:21;3.15;;;0.60;;
38312;SDS011;24114;52.260;6.714;2023-12-29T11:12:49;1.90;;;0.65;;
38312;SDS011;24114;52.260;6.714;2023-12-29T11:15:18;3.30;;;0.80;;
38312;SDS011;24114;52.260;6.714;2023-12-29T11:17:47;2.38;;;0.43;;
38312;SDS011;24114;52.260;6.714;2023-12-29T11:20:18;3.03;;;0.40;;
38312;SDS011;24114;52.260;6.714;2023-12-29T11:22:46;3.90;;;0.50;;
38312;SDS011;24114;52.260;6.714;2023-12-29T11:25:14;2.10;;;0.40;;
38312;SDS011;24114;52.260;6.714;2023-12-29T11:27:42;4.10;;;0.60;;
38312;SDS011;24114;52.260;6.714;2023-12-29T11:30:11;2.40;;;0.82;;
38312;SDS011;24114;52.260;6.714;2023-12-29T11:32:42;2.57;;;0.53;;
38312;SDS011;24114;52.260;6.714;2023-12-29T11:35:15;3.13;;;0.40;;
38312;SDS011;24114;52.260;6.714;2023-12-29T11:37:52;2.20;;;0.70;;
38312;SDS011;24114;52.260;6.714;2023-12-29T11:40:44;1.83;;;0.50;;
38312;SDS011;24114;52.260;6.714;2023-12-29T11:43:16;1.67;;;0.40;;
38312;SDS011;24114;52.260;6.714;2023-12-29T11:45:45;3.05;;;0.95;;
38312;SDS011;24114;52.260;6.714;2023-12-29T11:48:13;2.50;;;0.50;;
38312;SDS011;24114;52.260;6.714;2023-12-29T11:51:34;1.10;;;0.40;;
38312;SDS011;24114;52.260;6.714;2023-12-29T11:54:03;1.70;;;0.40;;
38312;SDS011;24114;52.260;6.714;2023-12-29T11:56:33;4.13;;;0.70;;
38312;SDS011;24114;52.260;6.714;2023-12-29T11:59:14;2.65;;;0.80;;
38312;SDS011;24114;52.260;6.714;2023-12-29T12:01:43;2.28;;;0.30;;
38312;SDS011;24114;52.260;6.714;2023-12-29T12:07:13;4.22;;;0.40;;
38312;SDS011;24114;52.260;6.714;2023-12-29T12:09:43;2.00;;;0.60;;
38312;SDS011;24114;52.260;6.714;2023-12-29T12:12:11;2.30;;;0.45;;
38312;SDS011;24114;52.260;6.714;2023-12-29T12:14:46;4.75;;;0.70;;
38312;SDS011;24114;52.260;6.714;2023-12-29T12:20:03;2.80;;;1.02;;
38312;SDS011;24114;52.260;6.714;2023-12-29T12:22:37;3.75;;;0.60;;
38312;SDS011;24114;52.260;6.714;2023-12-29T12:25:05;3.38;;;0.70;;
38312;SDS011;24114;52.260;6.714;2023-12-29T12:27:36;2.20;;;0.55;;
38312;SDS011;24114;52.260;6.714;2023-12-29T12:30:06;3.17;;;0.60;;
38312;SDS011;24114;52.260;6.714;2023-12-29T12:32:36;4.25;;;1.00;;
38312;SDS011;24114;52.260;6.714;2023-12-29T12:35:04;3.22;;;0.60;;
38312;SDS011;24114;52.260;6.714;2023-12-29T12:37:46;2.90;;;0.60;;
38312;SDS011;24114;52.260;6.714;2023-12-29T12:40:24;2.88;;;0.63;;
38312;SDS011;24114;52.260;6.714;2023-12-29T12:42:53;2.90;;;0.75;;
38312;SDS011;24114;52.260;6.714;2023-12-29T12:45:21;3.25;;;0.75;;
38312;SDS011;24114;52.260;6.714;2023-12-29T12:47:50;5.40;;;0.82;;
38312;SDS011;24114;52.260;6.714;2023-12-29T12:50:20;3.47;;;0.70;;
38312;SDS011;24114;52.260;6.714;2023-12-29T12:52:49;4.25;;;0.40;;
38312;SDS011;24114;52.260;6.714;2023-12-29T12:55:18;2.10;;;0.47;;
38312;SDS011;24114;52.260;6.714;2023-12-29T12:57:46;3.65;;;0.50;;
38312;SDS011;24114;52.260;6.714;2023-12-29T13:00:15;5.15;;;0.70;;
38312;SDS011;24114;52.260;6.714;2023-12-29T13:02:44;3.58;;;0.60;;
38312;SDS011;24114;52.260;6.714;2023-12-29T13:05:12;5.55;;;0.93;;
38312;SDS011;24114;52.260;6.714;2023-12-29T13:07:43;6.07;;;0.70;;
38312;SDS011;24114;52.260;6.714;2023-12-29T13:10:12;5.53;;;0.75;;
38312;SDS011;24114;52.260;6.714;2023-12-29T13:12:40;4.93;;;0.52;;
38312;SDS011;24114;52.260;6.714;2023-12-29T13:15:10;3.75;;;0.70;;
38312;SDS011;24114;52.260;6.714;2023-12-29T13:19:18;3.37;;;0.43;;
38312;SDS011;24114;52.260;6.714;2023-12-29T13:21:47;5.00;;;0.85;;
38312;SDS011;24114;52.260;6.714;2023-12-29T13:24:15;3.47;;;0.30;;
38312;SDS011;24114;52.260;6.714;2023-12-29T13:26:43;4.25;;;0.47;;
38312;SDS011;24114;52.260;6.714;2023-12-29T13:29:12;6.43;;;0.82;;
38312;SDS011;24114;52.260;6.714;2023-12-29T13:31:41;3.63;;;0.45;;
38312;SDS011;24114;52.260;6.714;2023-12-29T13:34:11;3.05;;;0.63;;
38312;SDS011;24114;52.260;6.714;2023-12-29T13:36:43;4.55;;;0.50;;
38312;SDS011;24114;52.260;6.714;2023-12-29T13:39:21;3.65;;;0.43;;
38312;SDS011;24114;52.260;6.714;2023-12-29T13:41:51;3.17;;;0.60;;
38312;SDS011;24114;52.260;6.714;2023-12-29T13:44:19;4.55;;;0.30;;
38312;SDS011;24114;52.260;6.714;2023-12-29T13:46:48;3.90;;;0.55;;
38312;SDS011;24114;52.260;6.714;2023-12-29T13:49:16;5.20;;;0.43;;
38312;SDS011;24114;52.260;6.714;2023-12-29T13:51:46;6.53;;;0.80;;
38312;SDS011;24114;52.260;6.714;2023-12-29T13:54:13;4.50;;;0.60;;
38312;SDS011;24114;52.260;6.714;2023-12-29T13:56:50;6.97;;;0.95;;
38312;SDS011;24114;52.260;6.714;2023-12-29T13:59:18;5.60;;;1.00;;
38312;SDS011;24114;52.260;6.714;2023-12-29T14:01:46;4.57;;;0.60;;
38312;SDS011;24114;52.260;6.714;2023-12-29T14:07:24;5.00;;;0.80;;
38312;SDS011;24114;52.260;6.714;2023-12-29T14:09:53;6.38;;;1.23;;
38312;SDS011;24114;52.260;6.714;2023-12-29T14:13:18;5.13;;;0.70;;
38312;SDS011;24114;52.260;6.714;2023-12-29T14:15:46;4.05;;;0.70;;
38312;SDS011;24114;52.260;6.714;2023-12-29T14:18:25;6.20;;;1.30;;
38312;SDS011;24114;52.260;6.714;2023-12-29T14:24:09;6.10;;;0.80;;
38312;SDS011;24114;52.260;6.714;2023-12-29T14:26:37;7.05;;;1.55;;
38312;SDS011;24114;52.260;6.714;2023-12-29T14:29:08;5.55;;;1.27;;
38312;SDS011;24114;52.260;6.714;2023-12-29T14:31:37;6.63;;;1.50;;
38312;SDS011;24114;52.260;6.714;2023-12-29T14:34:06;7.13;;;0.95;;
38312;SDS011;24114;52.260;6.714;2023-12-29T14:36:35;4.88;;;0.90;;
38312;SDS011;24114;52.260;6.714;2023-12-29T14:39:04;4.18;;;1.13;;
38312;SDS011;24114;52.260;6.714;2023-12-29T14:41:32;5.40;;;1.35;;
38312;SDS011;24114;52.260;6.714;2023-12-29T14:44:00;5.03;;;0.63;;
38312;SDS011;24114;52.260;6.714;2023-12-29T14:46:29;7.05;;;1.35;;
38312;SDS011;24114;52.260;6.714;2023-12-29T14:48:59;7.75;;;0.90;;
38312;SDS011;24114;52.260;6.714;2023-12-29T14:51:27;7.38;;;1.35;;
38312;SDS011;24114;52.260;6.714;2023-12-29T14:53:55;7.13;;;1.10;;
38312;SDS011;24114;52.260;6.714;2023-12-29T14:56:22;6.57;;;1.63;;
38312;SDS011;24114;52.260;6.714;2023-12-29T14:58:51;5.35;;;0.70;;
38312;SDS011;24114;52.260;6.714;2023-12-29T15:01:18;5.70;;;0.90;;
38312;SDS011;24114;52.260;6.714;2023-12-29T15:03:48;6.43;;;0.85;;
38312;SDS011;24114;52.260;6.714;2023-12-29T15:06:16;6.70;;;0.93;;
38312;SDS011;24114;52.260;6.714;2023-12-29T15:08:43;5.82;;;1.27;;
38312;SDS011;24114;52.260;6.714;2023-12-29T15:11:11;6.78;;;1.00;;
38312;SDS011;24114;52.260;6.714;2023-12-29T15:13:39;8.20;;;1.42;;
38312;SDS011;24114;52.260;6.714;2023-12-29T15:16:07;8.68;;;1.85;;
38312;SDS011;24114;52.260;6.714;2023-12-29T15:18:36;7.95;;;1.35;;